createdAt,value
2022-12-03T00:03:11.452Z,18.88
2022-12-03T00:08:14.456Z,17.40
2022-12-03T00:13:17.162Z,17.67
2022-12-03T00:18:21.796Z,17.48
2022-12-03T00:23:25.078Z,17.05
2022-12-03T00:28:28.299Z,18.15
2022-12-03T00:33:32.413Z,15.57
2022-12-03T00:38:35.133Z,16.20
2022-12-03T00:43:37.842Z,13.98
2022-12-03T00:48:41.911Z,14.18
2022-12-03T00:53:44.590Z,14.52
2022-12-03T00:58:47.278Z,10.88
2022-12-03T01:03:51.455Z,13.10
2022-12-03T01:08:54.177Z,13.95
2022-12-03T01:13:56.954Z,10.27
2022-12-03T01:19:01.105Z,11.00
2022-12-03T01:24:04.252Z,11.30
2022-12-03T01:29:07.273Z,11.05
2022-12-03T01:34:11.319Z,10.93
2022-12-03T01:39:14.027Z,11.20
2022-12-03T01:44:18.479Z,10.20
2022-12-03T01:49:25.408Z,10.98
2022-12-03T01:54:32.156Z,13.13
2022-12-03T01:59:37.339Z,9.60
2022-12-03T02:04:41.405Z,8.05
2022-12-03T02:09:44.111Z,10.52
2022-12-03T02:14:47.212Z,8.05
2022-12-03T02:19:51.413Z,9.93
2022-12-03T02:24:57.330Z,9.57
2022-12-03T02:30:01.534Z,8.50
2022-12-03T02:35:04.582Z,8.77
2022-12-03T02:40:10.715Z,8.85
2022-12-03T02:45:16.927Z,8.00
2022-12-03T02:50:22.029Z,8.10
2022-12-03T02:55:25.493Z,8.13
2022-12-03T03:00:29.844Z,7.65
2022-12-03T03:05:33.697Z,9.07
2022-12-03T03:10:37.546Z,7.85
2022-12-03T03:15:42.477Z,6.72
2022-12-03T03:20:45.825Z,7.28
2022-12-03T03:25:50.503Z,7.68
2022-12-03T03:30:55.843Z,7.40
2022-12-03T03:36:00.353Z,7.47
2022-12-03T03:41:04.829Z,6.60
2022-12-03T03:46:09.526Z,7.45
2022-12-03T03:51:13.374Z,7.13
2022-12-03T03:56:17.412Z,9.48
2022-12-03T04:01:21.531Z,7.95
2022-12-03T04:06:24.217Z,8.88
2022-12-03T04:11:44.656Z,6.85
2022-12-03T04:16:48.832Z,8.63
2022-12-03T04:22:09.211Z,8.07
2022-12-03T04:27:29.402Z,9.50
2022-12-03T04:33:02.582Z,8.70
2022-12-03T04:38:05.317Z,9.13
2022-12-03T04:43:08.005Z,8.02
2022-12-03T04:48:12.031Z,7.55
2022-12-03T04:53:14.836Z,8.75
2022-12-03T04:58:17.578Z,11.18
2022-12-03T05:03:21.609Z,8.23
2022-12-03T05:08:24.411Z,9.68
2022-12-03T05:13:31.748Z,8.82
2022-12-03T05:18:35.817Z,8.18
2022-12-03T05:23:38.506Z,8.32
2022-12-03T05:28:41.255Z,9.95
2022-12-03T05:33:45.542Z,8.40
2022-12-03T05:38:48.289Z,8.23
2022-12-03T05:43:50.999Z,7.32
2022-12-03T05:48:55.053Z,9.70
2022-12-03T05:53:57.753Z,8.50
2022-12-03T05:59:00.474Z,10.20
2022-12-03T06:04:04.714Z,8.88
2022-12-03T06:09:07.445Z,8.75
2022-12-03T06:14:10.328Z,10.18
2022-12-03T06:19:14.371Z,10.32
2022-12-03T06:24:17.101Z,7.65
2022-12-03T06:29:19.781Z,9.02
2022-12-03T06:34:23.830Z,8.95
2022-12-03T06:39:26.567Z,10.70
2022-12-03T06:44:29.270Z,8.95
2022-12-03T06:49:33.306Z,8.35
2022-12-03T06:54:36.041Z,9.02
2022-12-03T06:59:38.795Z,8.90
2022-12-03T07:04:46.293Z,9.18
2022-12-03T07:09:49.246Z,10.52
2022-12-03T07:14:52.412Z,9.50
2022-12-03T07:19:56.610Z,10.70
2022-12-03T07:24:59.266Z,9.90
2022-12-03T07:30:02.136Z,10.13
2022-12-03T07:35:07.449Z,11.85
2022-12-03T07:40:11.374Z,12.32
2022-12-03T07:45:14.018Z,11.10
2022-12-03T07:50:18.109Z,12.57
2022-12-03T07:55:21.253Z,11.52
2022-12-03T08:00:24.809Z,12.85
2022-12-03T08:05:29.553Z,13.52
2022-12-03T08:10:32.416Z,13.02
2022-12-03T08:15:39.319Z,14.70
2022-12-03T08:20:44.784Z,14.00
2022-12-03T08:25:47.774Z,14.50
2022-12-03T08:31:00.329Z,13.98
2022-12-03T08:36:12.227Z,14.23
2022-12-03T08:41:37.397Z,13.80
2022-12-03T08:46:40.167Z,14.43
2022-12-03T08:51:44.251Z,12.63
2022-12-03T08:56:46.937Z,12.23
2022-12-03T09:01:50.103Z,12.07
2022-12-03T09:06:54.749Z,12.65
2022-12-03T09:11:57.710Z,14.25
2022-12-03T09:17:00.538Z,11.52
2022-12-03T09:22:04.689Z,13.30
2022-12-03T09:27:07.351Z,11.48
2022-12-03T09:32:15.132Z,13.48
2022-12-03T09:37:22.289Z,13.07
2022-12-03T09:42:25.899Z,8.40
2022-12-03T09:47:29.340Z,12.32
2022-12-03T09:52:34.602Z,15.30
2022-12-03T09:57:37.538Z,13.35
2022-12-03T10:02:40.209Z,20.13
2022-12-03T10:07:44.277Z,10.52
2022-12-03T10:12:47.198Z,13.85
2022-12-03T10:17:51.881Z,11.50
2022-12-03T10:22:55.898Z,11.00
2022-12-03T10:28:00.499Z,13.75
2022-12-03T10:33:17.359Z,11.18
2022-12-03T10:38:23.615Z,11.35
2022-12-03T10:43:26.772Z,12.10
2022-12-03T10:48:29.466Z,10.50
2022-12-03T10:53:35.523Z,11.23
2022-12-03T10:58:39.513Z,12.95
2022-12-03T11:03:42.398Z,12.35
2022-12-03T11:08:52.972Z,9.63
2022-12-03T11:14:00.124Z,9.48
2022-12-03T11:19:03.519Z,9.75
2022-12-03T11:24:28.318Z,9.38
2022-12-03T11:29:59.777Z,9.88
2022-12-03T11:35:02.585Z,9.00
2022-12-03T11:40:27.845Z,8.70
2022-12-03T11:45:33.051Z,9.23
2022-12-03T11:50:40.294Z,8.10
2022-12-03T11:55:48.572Z,8.77
2022-12-03T12:01:08.012Z,8.75
2022-12-03T12:06:12.120Z,11.25
2022-12-03T12:11:20.115Z,24.02
2022-12-03T12:16:42.346Z,23.17
2022-12-03T12:21:47.725Z,22.65
2022-12-03T12:26:52.693Z,23.50
2022-12-03T12:32:00.246Z,27.30
2022-12-03T12:37:03.975Z,20.92
2022-12-03T12:42:27.807Z,19.50
2022-12-03T12:47:32.074Z,16.23
2022-12-03T12:52:34.842Z,15.60
2022-12-03T12:57:38.865Z,18.15
2022-12-03T13:02:45.277Z,14.25
2022-12-03T13:07:48.214Z,20.88
2022-12-03T13:12:52.390Z,18.13
2022-12-03T13:17:55.200Z,14.25
2022-12-03T13:22:58.434Z,17.13
2022-12-03T13:28:02.499Z,11.77
2022-12-03T13:33:11.579Z,13.23
2022-12-03T13:38:17.009Z,14.55
2022-12-03T13:43:21.031Z,15.68
2022-12-03T13:48:25.540Z,19.00
2022-12-03T13:53:30.663Z,16.35
2022-12-03T13:58:34.660Z,12.80
2022-12-03T14:03:37.394Z,12.55
2022-12-03T14:08:40.108Z,13.10
2022-12-03T14:13:44.136Z,16.23
2022-12-03T14:18:46.844Z,14.93
2022-12-03T14:23:49.567Z,16.73
2022-12-03T14:28:53.572Z,17.83
2022-12-03T14:33:56.266Z,18.70
2022-12-03T14:38:58.908Z,14.98
2022-12-03T14:44:02.942Z,16.08
2022-12-03T14:49:05.663Z,15.07
2022-12-03T14:54:08.325Z,16.55
2022-12-03T14:59:12.361Z,14.98
2022-12-03T15:04:15.064Z,14.70
2022-12-03T15:09:18.338Z,15.88
2022-12-03T15:14:22.378Z,16.23
2022-12-03T15:19:25.052Z,15.27
2022-12-03T15:24:27.681Z,13.15
2022-12-03T15:29:32.833Z,15.73
2022-12-03T15:34:35.534Z,14.80
2022-12-03T15:39:40.361Z,17.08
2022-12-03T15:44:49.056Z,16.45
2022-12-03T15:49:52.000Z,17.05
2022-12-03T15:54:55.163Z,16.13
2022-12-03T16:00:00.116Z,15.15
2022-12-03T16:05:03.133Z,15.43
2022-12-03T16:10:06.845Z,15.55
2022-12-03T16:15:11.438Z,16.80
2022-12-03T16:20:14.120Z,16.02
2022-12-03T16:25:16.899Z,19.75
2022-12-03T16:30:21.195Z,16.33
2022-12-03T16:35:23.919Z,16.63
2022-12-03T16:40:26.791Z,17.05
2022-12-03T16:45:48.187Z,17.05
2022-12-03T16:50:50.914Z,15.30
2022-12-03T16:55:53.584Z,17.02
2022-12-03T17:00:57.557Z,15.95
2022-12-03T17:06:00.271Z,15.07
2022-12-03T17:11:02.951Z,14.57
2022-12-03T17:16:07.778Z,16.00
2022-12-03T17:21:10.456Z,16.77
2022-12-03T17:26:13.075Z,15.13
2022-12-03T17:31:17.218Z,15.98
2022-12-03T17:36:19.963Z,15.80
2022-12-03T17:41:23.948Z,15.30
2022-12-03T17:46:28.025Z,14.20
2022-12-03T17:51:30.695Z,14.73
2022-12-03T17:56:33.603Z,16.80
2022-12-03T18:01:37.679Z,13.10
2022-12-03T18:06:40.628Z,16.25
2022-12-03T18:11:43.312Z,13.35
2022-12-03T18:16:47.352Z,13.52
2022-12-03T18:21:50.039Z,12.88
2022-12-03T18:26:52.798Z,13.60
2022-12-03T18:31:56.950Z,15.60
2022-12-03T18:36:59.752Z,14.00
2022-12-03T18:42:02.602Z,14.77
2022-12-03T18:47:11.668Z,14.60
2022-12-03T18:52:14.944Z,14.18
2022-12-03T18:57:17.849Z,14.57
2022-12-03T19:07:45.094Z,12.82
2022-12-03T19:12:47.894Z,14.27
2022-12-03T19:17:52.057Z,13.80
2022-12-03T19:22:54.799Z,13.07
2022-12-03T19:27:57.505Z,14.73
2022-12-03T19:33:01.493Z,11.20
2022-12-03T19:38:04.161Z,15.32
2022-12-03T19:43:06.880Z,12.25
2022-12-03T19:48:10.906Z,12.43
2022-12-03T19:53:13.622Z,12.52
2022-12-03T19:58:16.321Z,15.18
2022-12-03T20:03:20.361Z,11.35
2022-12-03T20:08:23.140Z,13.48
2022-12-03T20:13:25.921Z,10.75
2022-12-03T20:18:29.926Z,12.88
2022-12-03T20:23:32.597Z,11.93
2022-12-03T20:28:35.305Z,14.93
2022-12-03T20:33:39.608Z,16.45
2022-12-03T20:38:42.377Z,16.90
2022-12-03T20:43:45.100Z,14.00
2022-12-03T20:48:49.127Z,15.02
2022-12-03T20:53:52.204Z,14.68
2022-12-03T20:58:54.926Z,14.30
2022-12-03T21:03:59.336Z,15.20
2022-12-03T21:09:02.320Z,14.43
2022-12-03T21:14:05.518Z,14.55
2022-12-03T21:19:10.461Z,15.32
2022-12-03T21:24:14.268Z,15.82
2022-12-03T21:29:17.085Z,14.13
2022-12-03T21:34:21.136Z,14.07
2022-12-03T21:39:23.821Z,12.23
2022-12-03T21:44:26.518Z,14.90
2022-12-03T21:49:30.537Z,12.30
2022-12-03T21:54:33.188Z,16.98
2022-12-03T21:59:35.872Z,10.98
2022-12-03T22:04:39.949Z,12.25
2022-12-03T22:09:42.738Z,13.50
2022-12-03T22:14:45.393Z,12.75
2022-12-03T22:19:49.400Z,13.18
2022-12-03T22:24:52.271Z,13.18
2022-12-03T22:29:55.305Z,12.13
2022-12-03T22:34:59.694Z,12.10
2022-12-03T22:40:02.427Z,12.30
2022-12-03T22:45:05.917Z,14.57
2022-12-03T22:50:10.759Z,11.30
2022-12-03T22:55:13.469Z,14.77
2022-12-03T23:00:27.853Z,12.10
2022-12-03T23:05:36.805Z,11.95
2022-12-03T23:10:43.440Z,11.95
2022-12-03T23:15:47.123Z,13.23
2022-12-03T23:20:53.449Z,12.10
2022-12-03T23:25:59.949Z,10.43
2022-12-03T23:31:02.915Z,12.65
2022-12-03T23:36:08.256Z,10.02
2022-12-03T23:41:12.218Z,14.85
2022-12-03T23:46:16.090Z,11.45
2022-12-03T23:51:22.426Z,12.00
2022-12-03T23:56:27.225Z,12.90
